Latest Weather Observations for Rhyll

IDV60801

Issued at 10:32 pm EDT Tuesday 21 November 2017 (issued every 30 minutes, with the page automatically refreshed every 10 minutes)

About weather observations | Map of weather stations | Latest weather observations for VIC | Other Formats
Station Details ID: 086373 Name: RHYLL Lat: -38.46 Lon: 145.31 Height: 13.4 m
Data from the previous 72 hours. | See also: Recent months at Rhyll
Date/Time
EDT
Temp
°C
App
Temp
°C
Dew
Point
°C
Rel
Hum
%
Delta-T
°C
Wind Press
QNH
hPa
Press
MSL
hPa
Rain since
9am
mm
Dir  Spd
km/h
Gust
km/h
Spd
kts
Gust
kts
21/10:30pm 21.3 21.0 16.5 74 2.9 E 13 15 7 8 1018.1 1018.1 0.0
21/10:00pm 21.2 21.9 16.2 73 3.0 E 7 13 4 7 1018.1 1018.1 0.0
21/09:30pm 22.2 22.0 16.7 71 3.4 ESE 13 19 7 10 1017.8 1017.8 0.0
21/09:00pm 22.9 21.9 16.7 68 3.8 E 17 24 9 13 1017.7 1017.7 0.0
21/08:30pm 23.5 22.8 16.5 65 4.3 ESE 15 17 8 9 1017.6 1017.6 0.0
21/08:00pm 24.3 23.5 17.1 64 4.4 ESE 17 22 9 12 1017.6 1017.6 0.0
21/07:30pm 25.3 23.5 15.9 56 5.7 SE 20 24 11 13 1017.5 1017.5 0.0
21/07:00pm 25.8 25.1 15.5 53 6.2 SE 13 15 7 8 1017.6 1017.6 0.0
21/06:30pm 25.7 24.6 15.4 53 6.2 SE 15 19 8 10 1017.4 1017.4 0.0
21/06:00pm 25.7 24.3 14.5 50 6.7 SE 15 17 8 9 1017.5 1017.5 0.0
21/05:30pm 25.9 24.8 15.3 52 6.4 SE 15 19 8 10 1017.6 1017.6 0.0
21/05:00pm 25.5 24.6 15.8 55 5.9 SE 15 19 8 10 1017.8 1017.8 0.0
21/04:30pm 25.9 25.8 15.9 54 6.1 SSE 11 17 6 9 1018.0 1018.0 0.0
21/04:00pm 25.9 25.8 17.0 58 5.5 SSE 13 17 7 9 1018.3 1018.3 0.0
21/03:30pm 25.5 25.2 16.4 57 5.6 SSE 13 15 7 8 1018.6 1018.6 0.0
21/03:00pm 26.1 26.6 16.6 55 5.9 SSE 9 13 5 7 1018.9 1018.9 0.0
21/02:30pm 25.7 25.8 16.5 56 5.7 SSE 11 13 6 7 1019.2 1019.2 0.0
21/02:00pm 25.6 26.4 17.3 60 5.2 S 9 13 5 7 1019.6 1019.6 0.0
21/01:30pm 25.5 25.4 16.9 59 5.3 SSE 13 17 7 9 1019.8 1019.8 0.0
21/01:00pm 25.3 26.1 17.2 61 5.0 SSE 9 13 5 7 1020.0 1020.0 0.0
21/12:30pm 25.1 25.6 16.5 59 5.3 S 9 13 5 7 1020.2 1020.2 0.0
21/12:00pm 26.9 28.3 17.4 56 5.9 S 6 11 3 6 1020.4 1020.4 0.0
21/11:30am 27.3 27.3 14.3 45 7.8 NNW 7 13 4 7 1020.6 1020.6 0.0
21/11:00am 25.8 26.6 14.9 51 6.5 NNE 4 7 2 4 1020.7 1020.7 0.0
21/10:30am 25.8 27.4 16.9 58 5.5 E 4 6 2 3 1020.9 1020.9 0.0
21/10:00am 25.3 26.8 17.7 62 4.7 ENE 6 7 3 4 1021.2 1021.2 0.0
21/09:30am 23.7 25.3 17.0 66 4.1 NE 4 6 2 3 1021.1 1021.1 0.0
21/09:00am 23.6 24.7 16.6 65 4.3 NE 6 7 3 4 1021.1 1021.1 0.0
21/08:30am 21.5 22.0 15.1 67 3.8 NE 6 7 3 4 1021.1 1021.1 0.0
21/08:00am 20.3 19.9 15.1 72 3.1 NE 11 13 6 7 1020.9 1020.9 0.0
21/07:30am 19.5 18.0 14.3 72 3.0 NE 15 19 8 10 1020.6 1020.6 0.0
21/07:00am 19.1 18.4 14.4 74 2.7 NE 11 13 6 7 1020.3 1020.3 0.0
21/06:30am 18.2 17.5 13.1 72 2.9 NNE 9 11 5 6 1020.3 1020.3 0.0
21/06:00am 16.6 16.6 13.5 82 1.7 NNW 6 7 3 4 1020.0 1020.0 0.0
21/05:30am 17.3 17.4 14.0 81 1.9 N 6 9 3 5 1019.6 1019.6 0.0
21/05:00am 17.0 17.2 14.1 83 1.6 N 6 7 3 4 1019.4 1019.4 0.0
21/04:30am 16.5 17.5 14.2 86 1.3 SW 2 4 1 2 1019.4 1019.4 0.0
21/04:00am 16.9 17.5 14.2 84 1.5 SW 4 6 2 3 1019.4 1019.4 0.0
21/03:30am 17.4 17.9 14.1 81 1.9 SSW 4 6 2 3 1019.5 1019.5 0.0
21/03:00am 17.6 18.0 13.7 78 2.2 SSW 4 6 2 3 1019.5 1019.5 0.0
21/02:30am 17.4 17.5 13.9 80 2.0 SSE 6 7 3 4 1019.5 1019.5 0.0
21/02:00am 17.6 17.6 14.3 81 1.9 SSE 7 11 4 6 1019.8 1019.8 0.0
21/01:30am 18.3 18.8 15.0 81 1.9 S 6 7 3 4 1020.1 1020.1 0.0
21/01:00am 19.3 19.3 14.3 73 2.9 SSE 7 11 4 6 1020.3 1020.3 0.0
21/12:30am 19.7 19.6 14.9 74 2.8 SE 9 13 5 7 1020.4 1020.4 0.0
21/12:00am 20.1 20.4 15.1 73 2.9 SE 7 9 4 5 1020.6 1020.6 0.0
 
Date/Time
EDT
Temp
°C
App
Temp
°C
Dew
Point
°C
Rel
Hum
%
Delta-T
°C
Wind Press
QNH
hPa
Press
MSL
hPa
Rain since
9am
mm
Dir  Spd
km/h
Gust
km/h
Spd
kts
Gust
kts
20/11:30pm 20.5 21.0 15.5 73 3.0 SE 7 11 4 6 1020.9 1020.9 0.0
20/11:00pm 20.4 20.3 15.0 71 3.2 ESE 9 15 5 8 1020.9 1020.9 0.0
20/10:30pm 20.3 20.5 15.7 75 2.7 ESE 9 13 5 7 1021.2 1021.2 0.0
20/10:00pm 20.8 19.8 15.6 72 3.1 ESE 15 19 8 10 1021.2 1021.2 0.0
20/09:30pm 21.1 21.4 15.9 72 3.1 SE 9 15 5 8 1021.1 1021.1 0.0
20/09:00pm 21.6 21.9 15.9 70 3.4 SE 9 13 5 7 1020.8 1020.8 0.0
20/08:30pm 22.3 22.0 15.4 65 4.1 SE 11 17 6 9 1020.9 1020.9 0.0
20/08:00pm 22.9 22.1 15.2 62 4.6 SE 13 19 7 10 1020.8 1020.8 0.0
20/07:30pm 23.7 22.5 17.0 66 4.1 ESE 19 20 10 11 1020.6 1020.6 0.0
20/07:00pm 24.0 24.2 16.8 64 4.4 SE 11 15 6 8 1020.3 1020.3 0.0
20/06:30pm 23.9 22.0 14.3 55 5.7 SE 17 22 9 12 1020.2 1020.2 0.0
20/06:00pm 24.3 23.0 15.8 59 5.1 SSE 17 22 9 12 1020.0 1020.0 0.0
20/05:30pm 24.6 22.9 14.7 54 5.9 SSE 17 22 9 12 1020.2 1020.2 0.0
20/05:00pm 25.3 24.8 15.9 56 5.7 SSE 13 19 7 10 1020.4 1020.4 0.0
20/04:30pm 24.9 23.9 15.5 56 5.7 SSE 15 19 8 10 1020.5 1020.5 0.0
20/04:00pm 25.1 24.4 16.3 58 5.4 SSE 15 19 8 10 1020.7 1020.7 0.0
20/03:30pm 26.2 25.8 16.2 54 6.1 SSE 13 19 7 10 1020.9 1020.9 0.0
20/03:00pm 26.6 27.8 16.8 55 6.1 SE 6 9 3 5 1021.2 1021.2 0.0
20/02:30pm 27.1 28.2 16.7 53 6.5 SE 6 7 3 4 1021.4 1021.4 0.0
20/02:00pm 26.3 27.1 16.3 54 6.1 S 7 9 4 5 1021.8 1021.8 0.0
20/01:30pm 26.3 27.1 17.4 58 5.6 SSE 9 13 5 7 1022.1 1022.1 0.0
20/01:00pm 27.5 28.7 16.8 52 6.6 SE 6 7 3 4 1022.3 1022.3 0.0
20/12:30pm 26.7 28.2 16.6 54 6.3 SSW 4 9 2 5 1022.6 1022.6 0.0
20/12:00pm 26.5 26.1 12.5 41 8.1 NW 6 9 3 5 1022.8 1022.8 0.0
20/11:30am 25.8 25.1 13.3 46 7.3 NNW 9 13 5 7 1022.9 1022.9 0.0
20/11:00am 25.3 24.1 14.1 50 6.6 NNW 13 19 7 10 1023.1 1023.1 0.0
20/10:30am 24.9 24.8 16.1 58 5.4 NNW 11 19 6 10 1023.3 1023.3 0.0
20/10:00am 23.7 22.7 15.7 61 4.8 NNW 15 19 8 10 1023.2 1023.2 0.0
20/09:30am 22.6 23.7 15.7 65 4.1 NE 4 6 2 3 1023.3 1023.3 0.0
20/09:00am 22.5 23.9 16.3 68 3.7 NE 4 6 2 3 1023.5 1023.5 0.0
20/08:30am 21.7 23.0 16.2 71 3.3 E 4 6 2 3 1023.5 1023.5 0.0
20/08:00am 20.9 22.5 15.9 73 3.0 E 2 4 1 2 1023.0 1023.0 0.0
20/07:30am 19.1 20.9 15.6 80 2.1 CALM 0 2 0 1 1022.9 1022.9 0.0
20/07:00am 17.6 18.8 14.9 84 1.6 SSW 2 4 1 2 1022.4 1022.4 0.0
20/06:30am 16.5 17.1 14.3 87 1.3 WSW 4 6 2 3 1022.1 1022.1 0.0
20/06:00am 16.5 17.3 14.7 89 1.0 SW 4 6 2 3 1021.6 1021.6 0.0
20/05:30am 16.6 17.0 14.8 89 1.0 SW 6 6 3 3 1021.4 1021.4 0.0
20/05:00am 16.9 17.4 15.1 89 1.0 SSW 6 9 3 5 1021.1 1021.1 0.0
20/04:30am 16.9 17.8 15.1 89 1.0 S 4 7 2 4 1021.0 1021.0 0.0
20/04:00am 17.1 17.5 15.4 90 1.0 SSW 7 9 4 5 1021.0 1021.0 0.0
20/03:30am 16.8 17.2 15.2 90 0.9 SSW 7 9 4 5 1020.9 1020.9 0.0
20/03:00am 16.8 16.6 14.8 88 1.1 SW 9 11 5 6 1020.8 1020.8 0.0
20/02:30am 17.8 18.9 14.5 81 1.9 S 2 6 1 3 1020.8 1020.8 0.0
20/02:00am 18.7 19.1 13.8 73 2.8 WNW 4 6 2 3 1020.8 1020.8 0.0
20/01:30am 18.4 19.6 13.9 75 2.6 CALM 0 2 0 1 1020.9 1020.9 0.0
20/01:00am 19.5 20.1 14.3 72 3.0 NNE 4 7 2 4 1020.7 1020.7 0.0
20/12:30am 19.4 20.4 15.3 77 2.4 NNE 4 6 2 3 1020.8 1020.8 0.0
20/12:00am 18.1 18.8 14.6 80 2.0 ENE 4 7 2 4 1020.8 1020.8 0.0
 
Date/Time
EDT
Temp
°C
App
Temp
°C
Dew
Point
°C
Rel
Hum
%
Delta-T
°C
Wind Press
QNH
hPa
Press
MSL
hPa
Rain since
9am
mm
Dir  Spd
km/h
Gust
km/h
Spd
kts
Gust
kts
19/11:30pm 18.3 18.6 14.4 78 2.2 E 6 7 3 4 1020.9 1020.9 0.0
19/11:00pm 18.7 19.0 14.6 77 2.4 E 6 7 3 4 1020.9 1020.9 0.0
19/10:30pm 19.4 18.3 14.4 73 2.9 E 13 17 7 9 1020.8 1020.8 0.0
19/10:00pm 19.6 18.3 14.8 74 2.8 E 15 17 8 9 1020.9 1020.9 0.0
19/09:30pm 20.1 18.8 14.9 72 3.0 E 15 19 8 10 1020.7 1020.7 0.0
19/09:00pm 20.4 19.2 14.1 67 3.6 SE 13 17 7 9 1020.6 1020.6 0.0
19/08:30pm 20.5 19.3 13.9 66 3.8 SE 13 17 7 9 1020.6 1020.6 0.0
19/08:00pm 20.5 19.1 14.6 69 3.4 SE 15 20 8 11 1020.3 1020.3 0.0
19/07:30pm 21.1 20.3 14.0 64 4.1 SE 11 15 6 8 1020.4 1020.4 0.0
19/07:00pm 21.4 21.0 15.3 68 3.6 SSE 11 15 6 8 1020.5 1020.5 0.0
19/06:30pm 21.6 21.2 15.2 67 3.8 SSE 11 15 6 8 1020.4 1020.4 0.0
19/06:00pm 21.7 20.9 15.1 66 3.9 SSE 13 17 7 9 1020.5 1020.5 0.0
19/05:30pm 21.7 20.2 15.3 67 3.8 SSE 17 22 9 12 1020.5 1020.5 0.0
19/05:00pm 22.0 20.6 15.6 67 3.8 SSE 17 22 9 12 1020.5 1020.5 0.0
19/04:30pm 22.9 21.7 16.2 66 4.1 SSE 17 24 9 13 1020.5 1020.5 0.0
19/04:00pm 23.1 21.9 16.2 65 4.2 SSE 17 20 9 11 1020.6 1020.6 0.0
19/03:30pm 23.4 22.7 16.4 64 4.3 SSE 15 20 8 11 1020.9 1020.9 0.0
19/03:00pm 23.8 22.8 16.6 64 4.4 SSE 17 20 9 11 1021.1 1021.1 0.0
19/02:30pm 23.4 22.0 15.5 61 4.7 SSE 17 20 9 11 1021.1 1021.1 0.0
19/02:00pm 26.2 25.8 16.2 54 6.1 S 13 19 7 10 1021.2 1021.2 0.0
19/01:30pm 25.9 25.6 16.5 56 5.8 S 13 24 7 13 1021.3 1021.3 0.0
19/01:00pm 24.6 24.6 16.3 60 5.1 SSE 11 15 6 8 1021.3 1021.3 0.0
19/12:30pm 26.1 27.0 16.1 54 6.1 SE 6 9 3 5 1021.3 1021.3 0.0
19/12:00pm 25.1 26.1 16.8 60 5.1 SE 7 11 4 6 1021.4 1021.4 0.0
19/11:30am 25.7 27.0 17.6 61 5.1 E 7 11 4 6 1021.6 1021.6 0.0
19/11:00am 24.4 25.9 16.6 61 4.8 E 4 6 2 3 1021.5 1021.5 0.0
19/10:30am 24.0 25.4 16.5 63 4.6 E 4 6 2 3 1021.6 1021.6 0.0
19/10:00am 24.2 25.5 17.2 65 4.3 ENE 6 7 3 4 1021.5 1021.5 0.0
19/09:30am 23.4 24.6 16.9 67 4.0 E 6 7 3 4 1021.5 1021.5 0.0
19/09:00am 22.4 23.8 17.8 75 2.8 E 7 9 4 5 1021.3 1021.3 0.0
19/08:30am 20.8 22.4 16.8 78 2.4 ENE 4 6 2 3 1021.2 1021.2 0.0
19/08:00am 20.7 22.7 17.9 84 1.7 ENE 4 4 2 2 1020.7 1020.7 0.0
19/07:30am 18.7 20.4 16.3 86 1.4 N 2 6 1 3 1020.2 1020.2 0.0
19/07:00am 18.4 19.9 16.7 90 1.0 N 4 6 2 3 1019.9 1019.9 0.0
19/06:30am 17.8 19.2 16.5 92 0.8 ENE 4 7 2 4 1019.6 1019.6 0.0
19/06:00am 17.1 18.6 15.6 91 0.9 NNE 2 4 1 2 1019.3 1019.3 0.0
19/05:30am 17.4 18.2 15.9 91 0.9 NNW 6 6 3 3 1019.0 1019.0 0.0
19/05:00am 16.9 18.7 15.6 92 0.8 CALM 0 6 0 3 1018.8 1018.8 0.0
19/04:30am 17.1 18.3 15.8 92 0.8 N 4 6 2 3 1018.6 1018.6 0.0
19/04:00am 17.3 18.5 16.0 92 0.8 NNW 4 6 2 3 1018.6 1018.6 0.0
19/03:30am 17.3 18.5 16.0 92 0.8 N 4 6 2 3 1018.5 1018.5 0.0
19/03:00am 17.6 19.6 16.1 91 0.9 CALM 0 4 0 2 1018.4 1018.4 0.0
19/02:30am 17.4 19.3 15.7 90 1.0 CALM 0 0 0 0 1018.4 1018.4 0.0
19/02:00am 17.6 19.2 15.9 90 1.0 NNW 2 6 1 3 1018.5 1018.5 0.0
19/01:30am 17.9 19.6 16.1 89 1.1 NW 2 6 1 3 1018.5 1018.5 0.0
19/01:00am 18.1 19.4 16.1 88 1.2 NW 4 6 2 3 1018.5 1018.5 0.0
19/12:30am 18.4 20.5 16.2 87 1.3 CALM 0 2 0 1 1018.5 1018.5 0.0
19/12:00am 18.4 20.5 16.2 87 1.3 CALM 0 0 0 0 1018.4 1018.4 0.0
 
Date/Time
EDT
Temp
°C
App
Temp
°C
Dew
Point
°C
Rel
Hum
%
Delta-T
°C
Wind Press
QNH
hPa
Press
MSL
hPa
Rain since
9am
mm
Dir  Spd
km/h
Gust
km/h
Spd
kts
Gust
kts
18/11:30pm 18.8 20.4 15.9 83 1.7 WNW 2 2 1 1 1018.2 1018.2 0.0
18/11:00pm 19.2 20.9 16.1 82 1.8 SW 2 4 1 2 1018.1 1018.1 0.0

Other Formats:

Comma delimited format used in spreadsheet applications
http://www.bom.gov.au/fwo/IDV60801/IDV60801.94892.axf

JavaScript Object Notation format (JSON) in row-major order
http://www.bom.gov.au/fwo/IDV60801/IDV60801.94892.json